createdAt,value
2018-12-08T00:00:05.265Z,35.6
2018-12-08T00:02:05.498Z,35.5
2018-12-08T00:04:05.265Z,35.4
2018-12-08T00:06:05.160Z,35.5
2018-12-08T00:08:08.451Z,35.5
2018-12-08T00:10:05.150Z,35.5
2018-12-08T00:12:08.555Z,35.6
2018-12-08T00:14:05.344Z,35.6
2018-12-08T00:16:07.883Z,35.6
2018-12-08T00:18:05.998Z,35.6
2018-12-08T00:20:05.679Z,35.6
2018-12-08T00:22:05.370Z,35.6
2018-12-08T00:24:05.083Z,35.5
2018-12-08T00:26:05.314Z,35.5
2018-12-08T00:28:05.966Z,35.6
2018-12-08T00:30:18.055Z,35.5
2018-12-08T00:32:05.782Z,35.6
2018-12-08T00:34:10.679Z,35.3
2018-12-08T00:36:05.669Z,35.5
2018-12-08T00:38:05.364Z,35.6
2018-12-08T00:40:05.509Z,35.4
2018-12-08T00:42:05.506Z,35.5
2018-12-08T00:44:07.804Z,35.5
2018-12-08T00:46:05.694Z,35.5
2018-12-08T00:48:05.421Z,35.4
2018-12-08T00:50:05.096Z,35.6
2018-12-08T00:52:10.383Z,35.5
2018-12-08T00:54:05.516Z,35.6
2018-12-08T00:56:07.753Z,35.5
2018-12-08T00:58:05.422Z,35.5
2018-12-08T01:00:05.180Z,35.5
2018-12-08T01:02:08.394Z,35.6
2018-12-08T01:04:05.104Z,35.3
2018-12-08T01:06:08.391Z,35.6
2018-12-08T01:08:07.638Z,35.3
2018-12-08T01:10:05.399Z,35.3
2018-12-08T01:12:05.105Z,35.6
2018-12-08T01:14:05.794Z,35.4
2018-12-08T01:16:08.042Z,35.3
2018-12-08T01:18:08.480Z,35.3
2018-12-08T01:20:08.452Z,35.5
2018-12-08T01:22:05.412Z,35.5
2018-12-08T01:24:05.085Z,35.5
2018-12-08T01:26:08.335Z,35.3
2018-12-08T01:28:05.011Z,35.3
2018-12-08T01:30:05.262Z,35.3
2018-12-08T01:32:10.586Z,35.3
2018-12-08T01:34:05.238Z,35.3
2018-12-08T01:36:05.919Z,35.3
2018-12-08T01:38:05.873Z,35.3
2018-12-08T01:40:11.510Z,35.3
2018-12-08T01:42:05.778Z,35.2
2018-12-08T01:44:05.524Z,35.5
2018-12-08T01:46:05.224Z,35.3
2018-12-08T01:48:05.905Z,35.3
2018-12-08T01:50:06.569Z,35.4
2018-12-08T01:52:05.745Z,35.4
2018-12-08T01:54:07.975Z,35.1
2018-12-08T01:56:05.658Z,35.1
2018-12-08T01:58:05.365Z,35.2
2018-12-08T02:00:05.173Z,35.3
2018-12-08T02:02:07.647Z,35.4
2018-12-08T02:04:05.523Z,35.4
2018-12-08T02:06:05.270Z,35.4
2018-12-08T02:08:05.694Z,35.2
2018-12-08T02:10:05.429Z,35.4
2018-12-08T02:12:05.746Z,35.3
2018-12-08T02:14:05.397Z,35.3
2018-12-08T02:16:06.051Z,35.4
2018-12-08T02:18:11.686Z,35.2
2018-12-08T02:20:05.407Z,35.2
2018-12-08T02:22:05.794Z,35.2
2018-12-08T02:24:05.455Z,35.2
2018-12-08T02:26:07.929Z,35.1
2018-12-08T02:28:05.593Z,35.2
2018-12-08T02:30:05.302Z,35.2
2018-12-08T02:32:05.618Z,35.1
2018-12-08T02:34:05.285Z,35.4
2018-12-08T02:36:05.980Z,35.3
2018-12-08T02:38:05.222Z,35.3
2018-12-08T02:40:08.403Z,35.2
2018-12-08T02:42:05.136Z,35.1
2018-12-08T02:44:05.770Z,35.4
2018-12-08T02:46:05.523Z,35.1
2018-12-08T02:48:07.830Z,35.1
2018-12-08T02:50:08.293Z,35.4
2018-12-08T02:52:05.975Z,35.3
2018-12-08T02:54:06.666Z,35.4
2018-12-08T02:56:05.356Z,35.3
2018-12-08T02:58:05.051Z,35.2
2018-12-08T03:00:05.792Z,35.2
2018-12-08T03:02:05.472Z,35.1
2018-12-08T03:04:05.277Z,35.3
2018-12-08T03:06:05.966Z,35
2018-12-08T03:08:05.666Z,35.1
2018-12-08T03:10:05.487Z,35.1
2018-12-08T03:12:05.791Z,35.1
2018-12-08T03:14:05.451Z,35.1
2018-12-08T03:16:10.621Z,35.1
2018-12-08T03:18:05.463Z,35.1
2018-12-08T03:20:10.264Z,35
2018-12-08T03:22:05.986Z,35
2018-12-08T03:24:10.872Z,35.1
2018-12-08T03:26:05.619Z,35.1
2018-12-08T03:28:07.898Z,35.1
2018-12-08T03:30:18.435Z,35
2018-12-08T03:32:05.196Z,35
2018-12-08T03:34:06.051Z,35.2
2018-12-08T03:36:05.725Z,35.2
2018-12-08T03:38:05.391Z,35.1
2018-12-08T03:40:10.185Z,35
2018-12-08T03:42:05.904Z,34.9
2018-12-08T03:44:10.645Z,35.2
2018-12-08T03:46:05.936Z,35
2018-12-08T03:48:05.722Z,35
2018-12-08T03:50:07.996Z,35.1
2018-12-08T03:52:05.667Z,35.1
2018-12-08T03:54:05.918Z,34.9
2018-12-08T03:56:05.148Z,35
2018-12-08T03:58:10.863Z,35
2018-12-08T04:00:08.074Z,35
2018-12-08T04:02:08.276Z,34.9
2018-12-08T04:04:06.026Z,35
2018-12-08T04:06:05.845Z,35
2018-12-08T04:08:05.609Z,35
2018-12-08T04:10:05.705Z,35.1
2018-12-08T04:12:07.994Z,34.9
2018-12-08T04:14:08.229Z,34.9
2018-12-08T04:16:13.511Z,35.1
2018-12-08T04:18:05.422Z,35.1
2018-12-08T04:20:05.111Z,35.1
2018-12-08T04:22:08.352Z,34.9
2018-12-08T04:24:12.658Z,35.1
2018-12-08T04:26:07.962Z,35
2018-12-08T04:28:05.668Z,35
2018-12-08T04:30:10.399Z,34.9
2018-12-08T04:32:10.129Z,35.1
2018-12-08T04:34:05.843Z,35.1
2018-12-08T04:36:08.181Z,35
2018-12-08T04:38:10.948Z,34.9
2018-12-08T04:40:05.166Z,34.9
2018-12-08T04:42:10.396Z,34.9
2018-12-08T04:44:07.611Z,35
2018-12-08T04:46:07.807Z,35
2018-12-08T04:48:05.456Z,35
2018-12-08T04:50:10.169Z,35
2018-12-08T04:52:08.467Z,34.8
2018-12-08T04:54:05.207Z,34.8
2018-12-08T04:56:05.997Z,35
2018-12-08T04:58:05.720Z,35
2018-12-08T05:00:05.449Z,34.9
2018-12-08T05:02:05.223Z,34.8
2018-12-08T05:04:05.973Z,34.9
2018-12-08T05:06:05.697Z,34.8
2018-12-08T05:08:05.374Z,35
2018-12-08T05:10:05.049Z,34.8
2018-12-08T05:12:05.840Z,35
2018-12-08T05:14:05.515Z,35
2018-12-08T05:16:05.727Z,34.8
2018-12-08T05:18:08.130Z,34.8
2018-12-08T05:20:05.905Z,34.8
2018-12-08T05:22:05.617Z,34.8
2018-12-08T05:24:05.916Z,34.9
2018-12-08T05:26:11.626Z,34.9
2018-12-08T05:28:11.246Z,34.8
2018-12-08T05:30:05.756Z,34.8
2018-12-08T05:32:05.728Z,34.9
2018-12-08T05:34:05.921Z,34.8
2018-12-08T05:36:05.676Z,34.9
2018-12-08T05:38:05.877Z,34.7
2018-12-08T05:40:08.108Z,34.7
2018-12-08T05:42:05.871Z,34.7
2018-12-08T05:44:05.588Z,34.8
2018-12-08T05:46:05.221Z,34.8
2018-12-08T05:48:06.000Z,34.8
2018-12-08T05:50:10.291Z,34.8
2018-12-08T05:52:08.482Z,34.8
2018-12-08T05:54:05.323Z,34.8
2018-12-08T05:56:07.611Z,34.9
2018-12-08T05:58:07.865Z,34.9
2018-12-08T06:00:13.233Z,34.8
2018-12-08T06:02:08.421Z,34.8
2018-12-08T06:04:05.043Z,34.6
2018-12-08T06:06:05.708Z,34.9
2018-12-08T06:08:05.902Z,34.8
2018-12-08T06:10:05.630Z,34.7
2018-12-08T06:12:05.898Z,34.8
2018-12-08T06:14:13.224Z,34.8
2018-12-08T06:16:05.454Z,34.8
2018-12-08T06:18:07.945Z,34.8
2018-12-08T06:20:05.602Z,34.8
2018-12-08T06:22:05.341Z,34.8
2018-12-08T06:24:05.153Z,34.7
2018-12-08T06:26:05.873Z,34.7
2018-12-08T06:28:05.655Z,34.7
2018-12-08T06:30:07.949Z,34.8
2018-12-08T06:32:08.115Z,34.7
2018-12-08T06:34:14.668Z,34.7
2018-12-08T06:36:08.595Z,34.8
2018-12-08T06:38:05.428Z,34.7
2018-12-08T06:40:05.657Z,34.5
2018-12-08T06:42:05.451Z,34.8
2018-12-08T06:44:05.373Z,34.8
2018-12-08T06:46:07.625Z,34.6
2018-12-08T06:48:05.286Z,34.6
2018-12-08T06:50:10.200Z,34.6
2018-12-08T06:52:05.938Z,34.6
2018-12-08T06:54:05.623Z,34.7
2018-12-08T06:56:05.361Z,34.7
2018-12-08T06:58:05.044Z,34.5
2018-12-08T07:00:05.827Z,34.6
2018-12-08T07:02:13.135Z,34.8
2018-12-08T07:04:10.840Z,34.4
2018-12-08T07:06:05.570Z,34.5
2018-12-08T07:08:05.311Z,34.6
2018-12-08T07:10:05.096Z,34.6
2018-12-08T07:12:05.770Z,34.7
2018-12-08T07:14:05.432Z,34.5
2018-12-08T07:16:05.155Z,34.6
2018-12-08T07:18:05.023Z,34.4
2018-12-08T07:20:05.962Z,34.7
2018-12-08T07:22:05.683Z,34.6
2018-12-08T07:24:05.401Z,34.7
2018-12-08T07:26:05.027Z,34.5
2018-12-08T07:28:05.689Z,34.6
2018-12-08T07:30:05.912Z,34.6
2018-12-08T07:32:05.581Z,34.6
2018-12-08T07:34:05.933Z,34.6
2018-12-08T07:36:05.694Z,34.6
2018-12-08T07:38:05.386Z,34.6
2018-12-08T07:40:05.723Z,34.6
2018-12-08T07:42:05.514Z,34.6
2018-12-08T07:44:10.256Z,34.6
2018-12-08T07:46:05.941Z,34.6
2018-12-08T07:48:05.658Z,34.5
2018-12-08T07:50:05.869Z,34.6
2018-12-08T07:52:05.576Z,34.6
2018-12-08T07:54:05.261Z,34.6
2018-12-08T07:56:05.929Z,34.6
2018-12-08T07:58:05.635Z,34.5
2018-12-08T08:00:05.377Z,34.5
2018-12-08T08:02:07.564Z,34.5
2018-12-08T08:04:05.265Z,34.5
2018-12-08T08:06:08.495Z,34.6
2018-12-08T08:08:07.733Z,34.5
2018-12-08T08:10:05.453Z,34.5
2018-12-08T08:12:05.209Z,34.5
2018-12-08T08:14:05.924Z,34.5
2018-12-08T08:16:08.234Z,34.5
2018-12-08T08:18:12.727Z,34.3
2018-12-08T08:20:10.538Z,34.6
2018-12-08T08:22:05.346Z,34.5
2018-12-08T08:24:05.007Z,34.5
2018-12-08T08:26:05.226Z,34.5
2018-12-08T08:28:08.393Z,34.5
2018-12-08T08:30:07.644Z,34.3
2018-12-08T08:32:10.420Z,34.4
2018-12-08T08:34:05.119Z,34.4
2018-12-08T08:36:05.947Z,34.4
2018-12-08T08:38:05.725Z,34.6
2018-12-08T08:40:10.058Z,34.4
2018-12-08T08:42:05.757Z,34.4
2018-12-08T08:44:05.600Z,34.4
2018-12-08T08:46:05.841Z,34.4
2018-12-08T08:48:05.538Z,34.4
2018-12-08T08:50:05.596Z,34.4
2018-12-08T08:52:13.435Z,34.6
2018-12-08T08:54:05.711Z,34.4
2018-12-08T08:56:05.493Z,34.3
2018-12-08T08:58:05.257Z,34.4
2018-12-08T09:00:05.980Z,34.4
2018-12-08T09:02:10.825Z,34.4
2018-12-08T09:04:06.508Z,34.3
2018-12-08T09:06:08.511Z,34.4
2018-12-08T09:08:05.253Z,34.4
2018-12-08T09:10:05.940Z,34.3
2018-12-08T09:12:05.766Z,34.3
2018-12-08T09:14:13.607Z,34.5
2018-12-08T09:16:05.276Z,34.4
2018-12-08T09:18:05.176Z,34.4
2018-12-08T09:20:07.936Z,34.3
2018-12-08T09:22:05.642Z,34.3
2018-12-08T09:24:05.327Z,34.5
2018-12-08T09:26:05.561Z,34.2
2018-12-08T09:28:05.254Z,34.5
2018-12-08T09:30:06.070Z,34.4
2018-12-08T09:32:05.801Z,34.2
2018-12-08T09:34:07.978Z,34.3
2018-12-08T09:36:05.210Z,34.4
2018-12-08T09:38:05.945Z,34.4
2018-12-08T09:40:08.115Z,34.3
2018-12-08T09:42:05.937Z,34.3
2018-12-08T09:44:05.641Z,34.3
2018-12-08T09:46:07.906Z,34.4
2018-12-08T09:48:05.081Z,34.4
2018-12-08T09:50:05.732Z,34.4
2018-12-08T09:52:10.960Z,34.1
2018-12-08T09:54:05.651Z,34.4
2018-12-08T09:56:05.367Z,34.2
2018-12-08T09:58:10.671Z,34.5
2018-12-08T10:00:05.347Z,34.2
2018-12-08T10:02:05.000Z,34.3
2018-12-08T10:04:05.219Z,34.2
2018-12-08T10:06:08.437Z,34.3
2018-12-08T10:08:05.204Z,34.3
2018-12-08T10:10:05.922Z,34.3
2018-12-08T10:12:05.205Z,34.3
2018-12-08T10:14:06.134Z,34.3
2018-12-08T10:16:05.318Z,34.3
2018-12-08T10:18:05.274Z,34.3
2018-12-08T10:20:08.553Z,34.3
2018-12-08T10:22:07.890Z,34.5
2018-12-08T10:24:08.204Z,34.4
2018-12-08T10:26:06.033Z,34.4
2018-12-08T10:28:05.710Z,34.4
2018-12-08T10:30:10.485Z,34.3
2018-12-08T10:32:05.457Z,34.3
2018-12-08T10:34:07.669Z,34.2
2018-12-08T10:36:10.905Z,34.4
2018-12-08T10:38:05.577Z,34.5
2018-12-08T10:40:05.222Z,34.4
2018-12-08T10:42:05.223Z,34.4
2018-12-08T10:44:08.019Z,34.5
2018-12-08T10:46:05.735Z,34.4
2018-12-08T10:48:05.421Z,34.4
2018-12-08T10:50:05.600Z,34.4
2018-12-08T10:52:05.259Z,34.4
2018-12-08T10:54:05.060Z,34.4
2018-12-08T10:56:10.937Z,34.3
2018-12-08T10:58:05.253Z,34.3
2018-12-08T11:00:05.494Z,34.3
2018-12-08T11:02:05.266Z,34.3
2018-12-08T11:04:08.531Z,34.2
2018-12-08T11:06:08.323Z,34.3
2018-12-08T11:08:05.055Z,34.3
2018-12-08T11:10:05.793Z,34.3
2018-12-08T11:12:06.021Z,34.2
2018-12-08T11:14:05.706Z,34.5
2018-12-08T11:16:05.413Z,34.3
2018-12-08T11:18:06.258Z,34.3
2018-12-08T11:20:05.430Z,34.2
2018-12-08T11:22:05.697Z,34.3
2018-12-08T11:24:05.380Z,34.4
2018-12-08T11:26:05.125Z,34.2
2018-12-08T11:28:05.775Z,34.4
2018-12-08T11:30:05.431Z,34.2
2018-12-08T11:32:07.683Z,34.3
2018-12-08T11:34:06.125Z,34.3
2018-12-08T11:36:13.464Z,34.4
2018-12-08T11:38:07.671Z,34.1
2018-12-08T11:40:05.496Z,34.2
2018-12-08T11:42:05.213Z,34.4
2018-12-08T11:44:05.921Z,34.3
2018-12-08T11:46:05.687Z,34.2
2018-12-08T11:48:05.393Z,34.3
2018-12-08T11:50:05.179Z,34.3
2018-12-08T11:52:05.912Z,34.2
2018-12-08T11:54:06.640Z,34.2
2018-12-08T11:56:05.354Z,34.3
2018-12-08T11:58:05.065Z,34.3
2018-12-08T12:00:08.347Z,34.3
2018-12-08T12:02:05.244Z,34.3
2018-12-08T12:04:05.977Z,34.4
2018-12-08T12:06:05.726Z,34.4
2018-12-08T12:08:05.424Z,34.6
2018-12-08T12:10:08.168Z,34.8
2018-12-08T12:12:05.882Z,34.7
2018-12-08T12:14:05.093Z,34.6
2018-12-08T12:16:05.703Z,34.5
2018-12-08T12:18:06.548Z,34.6
2018-12-08T12:20:05.282Z,34.6
2018-12-08T12:22:07.574Z,34.7
2018-12-08T12:24:10.301Z,34.7
2018-12-08T12:26:15.630Z,34.8
2018-12-08T12:28:05.834Z,34.6
2018-12-08T12:30:05.901Z,34.6
2018-12-08T12:32:08.193Z,34.7
2018-12-08T12:34:05.996Z,34.7
2018-12-08T12:36:05.741Z,34.9
2018-12-08T12:38:07.852Z,34.9
2018-12-08T12:40:08.078Z,35.1
2018-12-08T12:42:05.763Z,35.1
2018-12-08T12:44:08.018Z,34.9
2018-12-08T12:46:08.233Z,34.9
2018-12-08T12:48:05.947Z,34.9
2018-12-08T12:50:05.695Z,35.1
2018-12-08T12:52:05.971Z,35.1
2018-12-08T12:54:05.665Z,35.1
2018-12-08T12:56:05.344Z,35
2018-12-08T12:58:05.082Z,35.1
2018-12-08T13:00:05.727Z,35.1
2018-12-08T13:02:08.228Z,35.2
2018-12-08T13:04:05.962Z,35.1
2018-12-08T13:06:10.674Z,35.2
2018-12-08T13:08:05.497Z,35.2
2018-12-08T13:10:10.284Z,35
2018-12-08T13:12:07.533Z,35.3
2018-12-08T13:14:05.194Z,35
2018-12-08T13:16:10.963Z,35.1
2018-12-08T13:18:07.553Z,35.5
2018-12-08T13:20:05.262Z,35.5
2018-12-08T13:22:08.102Z,35.9
2018-12-08T13:24:05.851Z,36
2018-12-08T13:26:08.088Z,36.2
2018-12-08T13:28:10.863Z,36.2
2018-12-08T13:30:06.595Z,36.2
2018-12-08T13:32:07.865Z,36.3
2018-12-08T13:34:05.628Z,36.3
2018-12-08T13:36:05.309Z,36.6
2018-12-08T13:38:07.550Z,36.7
2018-12-08T13:40:07.788Z,36.8
2018-12-08T13:42:05.675Z,36.8
2018-12-08T13:44:10.366Z,36.8
2018-12-08T13:46:07.671Z,36.8
2018-12-08T13:48:13.045Z,37
2018-12-08T13:50:05.751Z,37.2
2018-12-08T13:52:05.498Z,37.1
2018-12-08T13:54:05.306Z,37.3
2018-12-08T13:56:13.613Z,37.1
2018-12-08T13:58:05.257Z,37.1
2018-12-08T14:00:05.899Z,37.1
2018-12-08T14:02:05.565Z,37.3
2018-12-08T14:04:05.263Z,37.3
2018-12-08T14:06:05.939Z,37.2
2018-12-08T14:08:05.636Z,37.2
2018-12-08T14:10:05.318Z,37.3
2018-12-08T14:12:06.017Z,37.2
2018-12-08T14:14:05.962Z,37.2
2018-12-08T14:16:05.640Z,37.2
2018-12-08T14:18:05.547Z,37.2
2018-12-08T14:20:05.292Z,37.3
2018-12-08T14:22:08.491Z,37.3
2018-12-08T14:24:10.236Z,37.3
2018-12-08T14:26:05.547Z,37.3
2018-12-08T14:28:05.243Z,37.3
2018-12-08T14:30:05.002Z,37.3
2018-12-08T14:32:10.750Z,37.3
2018-12-08T14:34:05.400Z,37.3
2018-12-08T14:36:05.038Z,37.3
2018-12-08T14:38:05.762Z,37.2
2018-12-08T14:40:08.011Z,37.3
2018-12-08T14:42:05.686Z,37.3
2018-12-08T14:44:07.904Z,37.4
2018-12-08T14:46:06.605Z,37.4
2018-12-08T14:48:05.273Z,37.6
2018-12-08T14:50:11.125Z,37.5
2018-12-08T14:52:05.811Z,37.2
2018-12-08T14:54:05.604Z,37.3
2018-12-08T14:56:05.277Z,37.3
2018-12-08T14:58:05.524Z,37.5
2018-12-08T15:00:05.285Z,37.5
2018-12-08T15:02:06.000Z,37.5
2018-12-08T15:04:06.317Z,37.6
2018-12-08T15:06:05.496Z,37.5
2018-12-08T15:08:05.749Z,37.3
2018-12-08T15:10:05.956Z,37.4
2018-12-08T15:12:05.622Z,37.4
2018-12-08T15:14:05.849Z,37.3
2018-12-08T15:16:05.607Z,37.5
2018-12-08T15:18:05.720Z,37.4
2018-12-08T15:20:05.412Z,37.4
2018-12-08T15:22:05.078Z,37.5
2018-12-08T15:24:08.327Z,37.3
2018-12-08T15:26:05.061Z,37.3
2018-12-08T15:28:05.776Z,37.5
2018-12-08T15:30:06.407Z,37.2
2018-12-08T15:32:05.310Z,37.4
2018-12-08T15:34:11.088Z,37.2
2018-12-08T15:36:08.270Z,37.3
2018-12-08T15:38:05.930Z,37.3
2018-12-08T15:40:05.357Z,37.3
2018-12-08T15:42:05.097Z,37.4
2018-12-08T15:44:08.378Z,37.4
2018-12-08T15:46:13.222Z,37.3
2018-12-08T15:48:08.500Z,37.3
2018-12-08T15:50:05.165Z,37.3
2018-12-08T15:52:05.104Z,37.3
2018-12-08T15:54:05.341Z,37.5
2018-12-08T15:56:05.016Z,37.3
2018-12-08T15:58:20.851Z,37.3
2018-12-08T16:00:10.619Z,37.2
2018-12-08T16:02:05.368Z,37.3
2018-12-08T16:04:08.227Z,37.3
2018-12-08T16:06:05.897Z,37.3
2018-12-08T16:08:06.063Z,37.3
2018-12-08T16:10:15.941Z,37.3
2018-12-08T16:12:05.901Z,37.5
2018-12-08T16:14:05.941Z,37.4
2018-12-08T16:16:08.440Z,37.4
2018-12-08T16:18:05.849Z,37.3
2018-12-08T16:20:05.649Z,37.2
2018-12-08T16:22:05.965Z,37.4
2018-12-08T16:24:05.678Z,37.4
2018-12-08T16:26:10.395Z,37.2
2018-12-08T16:28:05.069Z,37.2
2018-12-08T16:30:05.799Z,37.2
2018-12-08T16:32:05.524Z,37.2
2018-12-08T16:34:05.288Z,37.3
2018-12-08T16:36:05.967Z,37.3
2018-12-08T16:38:05.163Z,37.2
2018-12-08T16:40:07.645Z,37.2
2018-12-08T16:42:05.373Z,37.2
2018-12-08T16:44:05.030Z,37.2
2018-12-08T16:46:05.727Z,37.3
2018-12-08T16:48:05.394Z,37.2
2018-12-08T16:50:05.074Z,37.3
2018-12-08T16:52:08.911Z,37.1
2018-12-08T16:54:05.551Z,37.2
2018-12-08T16:56:05.511Z,37.2
2018-12-08T16:58:05.503Z,37.1
2018-12-08T17:00:10.518Z,37.2
2018-12-08T17:02:07.262Z,37.2
2018-12-08T17:04:05.283Z,37.1
2018-12-08T17:06:07.695Z,37.2
2018-12-08T17:08:05.441Z,37.1
2018-12-08T17:10:05.148Z,37.3
2018-12-08T17:12:05.838Z,37.2
2018-12-08T17:14:05.619Z,37.1
2018-12-08T17:16:08.369Z,37.1
2018-12-08T17:18:05.526Z,37.1
2018-12-08T17:20:08.505Z,37
2018-12-08T17:22:05.698Z,37
2018-12-08T17:24:12.987Z,36.9
2018-12-08T17:26:07.858Z,37
2018-12-08T17:28:05.555Z,37
2018-12-08T17:30:05.378Z,37
2018-12-08T17:32:05.068Z,37.2
2018-12-08T17:34:05.771Z,37.2
2018-12-08T17:36:05.438Z,37
2018-12-08T17:38:05.680Z,36.9
2018-12-08T17:40:05.444Z,36.9
2018-12-08T17:42:05.769Z,37
2018-12-08T17:44:05.486Z,37
2018-12-08T17:46:05.188Z,36.8
2018-12-08T17:48:07.939Z,37
2018-12-08T17:50:08.226Z,37
2018-12-08T17:52:05.936Z,37
2018-12-08T17:54:11.743Z,37
2018-12-08T17:56:05.482Z,37
2018-12-08T17:58:05.164Z,36.9
2018-12-08T18:00:08.440Z,36.8
2018-12-08T18:02:05.434Z,36.8
2018-12-08T18:04:05.117Z,36.8
2018-12-08T18:06:05.752Z,36.9
2018-12-08T18:08:05.428Z,36.8
2018-12-08T18:10:05.173Z,36.6
2018-12-08T18:12:05.842Z,36.7
2018-12-08T18:14:05.538Z,36.9
2018-12-08T18:16:07.807Z,36.8
2018-12-08T18:18:05.501Z,36.8
2018-12-08T18:20:08.038Z,36.8
2018-12-08T18:22:06.169Z,36.6
2018-12-08T18:24:05.193Z,36.5
2018-12-08T18:26:05.949Z,36.9
2018-12-08T18:28:05.773Z,36.6
2018-12-08T18:30:05.491Z,36.6
2018-12-08T18:32:05.222Z,36.6
2018-12-08T18:34:09.854Z,36.6
2018-12-08T18:36:08.080Z,36.6
2018-12-08T18:38:05.857Z,36.6
2018-12-08T18:40:05.540Z,36.5
2018-12-08T18:42:05.249Z,36.7
2018-12-08T18:44:05.965Z,36.7
2018-12-08T18:46:08.204Z,36.6
2018-12-08T18:48:05.085Z,36.5
2018-12-08T18:50:05.763Z,36.7
2018-12-08T18:52:05.515Z,36.5
2018-12-08T18:54:05.336Z,36.5
2018-12-08T18:56:05.005Z,36.4
2018-12-08T18:58:15.785Z,36.5
2018-12-08T19:00:05.456Z,36.5
2018-12-08T19:02:05.214Z,36.5
2018-12-08T19:04:08.425Z,36.5
2018-12-08T19:06:05.055Z,36.5
2018-12-08T19:08:05.741Z,36.4
2018-12-08T19:10:07.909Z,36.6
2018-12-08T19:12:05.104Z,36.4
2018-12-08T19:14:08.003Z,36.5
2018-12-08T19:16:05.690Z,36.3
2018-12-08T19:18:05.609Z,36.2
2018-12-08T19:20:05.337Z,36.4
2018-12-08T19:22:05.819Z,36.4
2018-12-08T19:24:05.494Z,36.4
2018-12-08T19:26:07.751Z,36.4
2018-12-08T19:28:05.444Z,36.3
2018-12-08T19:30:05.178Z,36.2
2018-12-08T19:32:05.974Z,36.4
2018-12-08T19:34:11.188Z,36.4
2018-12-08T19:36:08.233Z,36.3
2018-12-08T19:38:10.238Z,36.2
2018-12-08T19:40:13.017Z,36.4
2018-12-08T19:42:08.198Z,36.3
2018-12-08T19:44:08.400Z,36.1
2018-12-08T19:46:07.645Z,36.1
2018-12-08T19:48:07.838Z,36.1
2018-12-08T19:50:05.121Z,36.1
2018-12-08T19:52:05.910Z,36.1
2018-12-08T19:54:10.951Z,36.1
2018-12-08T19:56:05.617Z,36.1
2018-12-08T19:58:05.365Z,36
2018-12-08T20:00:05.115Z,36.1
2018-12-08T20:02:05.357Z,36
2018-12-08T20:04:07.592Z,36.1
2018-12-08T20:06:07.809Z,36.1
2018-12-08T20:08:05.524Z,36.1
2018-12-08T20:10:05.241Z,36
2018-12-08T20:12:05.974Z,36.1
2018-12-08T20:14:11.708Z,36.1
2018-12-08T20:16:06.445Z,36
2018-12-08T20:18:05.347Z,36.1
2018-12-08T20:20:07.598Z,35.9
2018-12-08T20:22:05.842Z,36.1
2018-12-08T20:24:08.090Z,35.9
2018-12-08T20:26:05.840Z,35.9
2018-12-08T20:28:08.174Z,35.8
2018-12-08T20:30:10.932Z,35.8
2018-12-08T20:32:05.165Z,35.8
2018-12-08T20:34:05.920Z,35.9
2018-12-08T20:36:05.607Z,36.1
2018-12-08T20:38:05.337Z,35.8
2018-12-08T20:40:05.012Z,35.8
2018-12-08T20:42:08.590Z,35.8
2018-12-08T20:44:05.406Z,35.6
2018-12-08T20:46:07.612Z,35.8
2018-12-08T20:48:05.426Z,35.8
2018-12-08T20:50:05.192Z,35.8
2018-12-08T20:52:08.418Z,35.8
2018-12-08T20:54:05.604Z,35.8
2018-12-08T20:56:12.925Z,36
2018-12-08T20:58:07.643Z,35.9
2018-12-08T21:00:06.924Z,35.9
2018-12-08T21:02:05.610Z,35.7
2018-12-08T21:04:05.338Z,35.7
2018-12-08T21:06:05.417Z,35.5
2018-12-08T21:08:08.167Z,35.8
2018-12-08T21:10:05.855Z,35.7
2018-12-08T21:12:08.142Z,35.6
2018-12-08T21:14:07.982Z,35.6
2018-12-08T21:16:05.616Z,35.6
2018-12-08T21:18:05.733Z,35.6
2018-12-08T21:20:08.167Z,35.5
2018-12-08T21:22:05.881Z,35.6
2018-12-08T21:24:05.787Z,35.4
2018-12-08T21:26:05.485Z,35.6
2018-12-08T21:28:05.207Z,35.6
2018-12-08T21:30:05.949Z,35.4
2018-12-08T21:32:08.199Z,35.6
2018-12-08T21:34:05.782Z,35.3
2018-12-08T21:36:05.441Z,35.5
2018-12-08T21:38:07.687Z,35.4
2018-12-08T21:40:07.925Z,35.5
2018-12-08T21:42:05.858Z,35.5
2018-12-08T21:44:05.835Z,35.5
2018-12-08T21:46:05.075Z,35.4
2018-12-08T21:48:09.278Z,35.5
2018-12-08T21:50:05.064Z,35.3
2018-12-08T21:52:08.299Z,35.3
2018-12-08T21:54:05.973Z,35.3
2018-12-08T21:56:05.277Z,35.3
2018-12-08T21:58:05.355Z,35.5
2018-12-08T22:00:05.316Z,35.5
2018-12-08T22:02:06.037Z,35.5
2018-12-08T22:04:05.684Z,35.4
2018-12-08T22:06:10.577Z,35.4
2018-12-08T22:08:05.523Z,35.4
2018-12-08T22:10:05.495Z,35.3
2018-12-08T22:12:05.252Z,35.4
2018-12-08T22:14:05.941Z,35.4
2018-12-08T22:16:07.785Z,35.4
2018-12-08T22:18:05.640Z,35.4
2018-12-08T22:20:05.267Z,35.4
2018-12-08T22:22:06.015Z,35.3
2018-12-08T22:24:05.721Z,35.3
2018-12-08T22:26:18.289Z,35.3
2018-12-08T22:28:05.876Z,35.3
2018-12-08T22:30:05.638Z,35.2
2018-12-08T22:32:05.320Z,35.3
2018-12-08T22:34:05.993Z,35.2
2018-12-08T22:36:05.704Z,35.2
2018-12-08T22:38:07.977Z,35.3
2018-12-08T22:40:05.940Z,35.3
2018-12-08T22:42:05.650Z,35.3
2018-12-08T22:44:05.442Z,35.2
2018-12-08T22:46:05.164Z,35.2
2018-12-08T22:48:08.366Z,35.2
2018-12-08T22:50:05.257Z,35.2
2018-12-08T22:52:05.098Z,35.1
2018-12-08T22:54:05.791Z,35.3
2018-12-08T22:56:08.317Z,35.2
2018-12-08T22:58:15.210Z,35.2
2018-12-08T23:00:05.930Z,35.2
2018-12-08T23:02:05.132Z,35.3
2018-12-08T23:04:05.423Z,35.3
2018-12-08T23:06:07.669Z,35.3
2018-12-08T23:08:05.380Z,35.3
2018-12-08T23:10:05.087Z,35.1
2018-12-08T23:12:05.295Z,35.5
2018-12-08T23:14:05.512Z,35.2
2018-12-08T23:16:05.702Z,35
2018-12-08T23:18:06.586Z,35.1
2018-12-08T23:20:05.258Z,35
2018-12-08T23:22:06.015Z,35.1
2018-12-08T23:24:05.975Z,35.1
2018-12-08T23:26:05.682Z,35.1
2018-12-08T23:28:07.876Z,35.2
2018-12-08T23:30:05.551Z,35.2
2018-12-08T23:32:05.802Z,35.1
2018-12-08T23:34:05.729Z,35
2018-12-08T23:36:05.476Z,35.1
2018-12-08T23:38:05.163Z,35
2018-12-08T23:40:05.811Z,35
2018-12-08T23:42:05.535Z,35.1
2018-12-08T23:44:05.254Z,35
2018-12-08T23:46:05.517Z,35.1
2018-12-08T23:48:06.191Z,35.1
2018-12-08T23:50:08.416Z,35.2
2018-12-08T23:52:05.142Z,35.2
2018-12-08T23:54:06.116Z,35.1
2018-12-08T23:56:15.976Z,35.1
2018-12-08T23:58:05.146Z,35.1
